Time;durP1;ratioP1;P1;durP2;ratioP2;P2;SDS_P1;SDS_P2;PMS_P1;PMS_P2;Temp;Humidity;BMP_temperature;BMP_pressure;BME280_temperature;BME280_humidity;BME280_pressure;Samples;Min_cycle;Max_cycle;Signal;HPM_P1;HPM_P2
2021/09/02 00:00:56;;;;;;;5.80;3.80;;;;;;;13.00;78.89;97504.52;116157;1185;59591;-80
2021/09/02 00:03:26;;;;;;;7.60;3.80;;;;;;;12.98;79.03;97511.52;116203;1185;70334;-80
2021/09/02 00:05:55;;;;;;;10.60;4.50;;;;;;;12.97;78.81;97510.04;116239;1185;68993;-76
2021/09/02 00:08:24;;;;;;;7.50;4.10;;;;;;;12.95;78.89;97511.39;116186;1179;69026;-76
2021/09/02 00:10:54;;;;;;;9.00;4.40;;;;;;;12.92;78.83;97507.35;116161;1185;59554;-80
2021/09/02 00:13:23;;;;;;;6.50;4.10;;;;;;;12.92;78.96;97505.70;116202;1179;59542;-75
2021/09/02 00:15:53;;;;;;;7.60;4.10;;;;;;;12.90;78.93;97502.60;116159;1179;70628;-75
2021/09/02 00:18:23;;;;;;;5.90;4.10;;;;;;;12.87;79.17;97503.17;116200;1185;68251;-78
2021/09/02 00:20:52;;;;;;;5.70;3.80;;;;;;;12.85;79.01;97503.44;116145;1179;69137;-77
2021/09/02 00:23:22;;;;;;;9.20;4.20;;;;;;;12.82;78.98;97508.15;116168;1179;59543;-76
2021/09/02 00:25:51;;;;;;;7.60;4.10;;;;;;;12.79;79.14;97511.50;116097;1181;59522;-77
2021/09/02 00:28:22;;;;;;;6.70;4.30;;;;;;;12.78;79.24;97510.54;116164;1185;71314;-79
2021/09/02 00:30:51;;;;;;;7.20;4.30;;;;;;;12.75;79.32;97511.82;116166;1185;68205;-75
2021/09/02 00:33:21;;;;;;;10.20;4.30;;;;;;;12.75;79.24;97512.05;116128;1185;69072;-79
2021/09/02 00:35:51;;;;;;;8.50;4.40;;;;;;;12.74;79.26;97513.91;116098;1179;59500;-80
2021/09/02 00:38:20;;;;;;;5.80;4.20;;;;;;;12.73;79.07;97517.42;116197;1185;59504;-80
2021/09/02 00:40:49;;;;;;;7.70;4.20;;;;;;;12.73;79.16;97517.27;116196;1185;71338;-79
2021/09/02 00:43:19;;;;;;;8.20;4.60;;;;;;;12.73;79.25;97516.23;116182;1183;69074;-76
2021/09/02 00:45:49;;;;;;;8.40;4.70;;;;;;;12.72;79.30;97517.60;116137;1185;69255;-78
2021/09/02 00:48:18;;;;;;;6.80;4.10;;;;;;;12.72;79.01;97516.90;115959;1184;59639;-79
2021/09/02 00:50:49;;;;;;;6.80;4.20;;;;;;;12.73;78.90;97518.70;116154;1179;59558;-80
2021/09/02 00:53:18;;;;;;;;;;;;;;;12.70;78.93;97516.98;116196;1185;70569;-78
2021/09/02 00:55:48;;;;;;;6.30;4.10;;;;;;;12.68;78.73;97516.91;116110;1184;67410;-80
2021/09/02 00:58:19;;;;;;;7.40;4.30;;;;;;;12.67;78.64;97520.91;116122;1180;68393;-79
2021/09/02 01:00:49;;;;;;;9.70;4.50;;;;;;;12.65;78.80;97518.38;116107;1179;59543;-77
2021/09/02 01:03:20;;;;;;;8.80;5.00;;;;;;;12.63;78.87;97522.50;116018;1182;59492;-78
2021/09/02 01:05:54;;;;;;;7.30;4.30;;;;;;;12.62;78.78;97522.61;116209;1185;70482;-79
2021/09/02 01:08:25;;;;;;;7.30;4.70;;;;;;;12.61;78.60;97522.25;116229;1185;68364;-74
2021/09/02 01:10:55;;;;;;;7.70;4.70;;;;;;;12.61;78.55;97524.64;116142;1185;69181;-80
2021/09/02 01:13:25;;;;;;;7.30;4.30;;;;;;;12.60;78.78;97521.73;116083;1185;59613;-75
2021/09/02 01:15:55;;;;;;;7.30;4.80;;;;;;;12.57;78.65;97521.43;116192;1179;59556;-77
2021/09/02 01:18:26;;;;;;;6.00;4.20;;;;;;;12.54;78.50;97524.79;116111;1185;71461;-76
2021/09/02 01:20:56;;;;;;;7.50;4.20;;;;;;;12.50;78.48;97528.52;116156;1185;69163;-79
2021/09/02 01:23:26;;;;;;;7.90;4.90;;;;;;;12.48;78.06;97525.73;116129;1185;68510;-78
2021/09/02 01:25:55;;;;;;;9.90;4.60;;;;;;;12.48;78.39;97526.30;116119;1184;59545;-80
2021/09/02 01:28:24;;;;;;;9.30;4.40;;;;;;;12.45;78.72;97532.97;116161;1182;59507;-74
2021/09/02 01:30:55;;;;;;;7.90;5.40;;;;;;;12.45;78.56;97531.00;116173;1185;70443;-77
2021/09/02 01:33:26;;;;;;;9.20;5.20;;;;;;;12.44;78.57;97530.65;116112;1185;68424;-73
2021/09/02 01:35:56;;;;;;;10.70;5.40;;;;;;;12.41;78.93;97528.69;116181;1185;69151;-78
2021/09/02 01:38:26;;;;;;;;;;;;;;;12.42;78.85;97531.04;116192;1183;59549;-78
2021/09/02 01:40:56;;;;;;;8.30;4.70;;;;;;;12.39;78.96;97535.23;116076;1182;60045;-77
2021/09/02 01:43:25;;;;;;;12.80;5.30;;;;;;;12.38;79.16;97535.33;116214;1184;70371;-77
2021/09/02 01:45:56;;;;;;;12.40;5.40;;;;;;;12.37;78.93;97530.85;116180;1179;69508;-73
2021/09/02 01:48:26;;;;;;;8.00;5.40;;;;;;;12.39;79.04;97531.04;116142;1185;69230;-70
2021/09/02 01:50:56;;;;;;;9.60;5.10;;;;;;;12.38;78.86;97526.70;116220;1184;59534;-77
2021/09/02 01:53:26;;;;;;;8.80;5.00;;;;;;;12.37;79.24;97526.41;116174;1184;59554;-77
2021/09/02 01:55:57;;;;;;;7.90;5.40;;;;;;;12.35;79.08;97529.02;116174;1183;70553;-73
2021/09/02 01:58:26;;;;;;;6.40;4.70;;;;;;;12.34;79.19;97528.65;116205;1185;68194;-76
2021/09/02 02:00:57;;;;;;;8.80;4.70;;;;;;;12.32;79.04;97530.48;116107;1182;68212;-70
2021/09/02 02:03:27;;;;;;;9.80;5.30;;;;;;;12.28;78.95;97531.87;116120;1184;59530;-74
2021/09/02 02:05:58;;;;;;;8.60;4.80;;;;;;;12.27;79.13;97534.06;116148;1185;59598;-74
2021/09/02 02:08:27;;;;;;;11.00;5.60;;;;;;;12.27;79.05;97530.19;116155;1185;70767;-76
2021/09/02 02:10:57;;;;;;;8.70;5.20;;;;;;;12.28;79.12;97536.10;116128;1184;68853;-76
2021/09/02 02:13:27;;;;;;;11.00;5.40;;;;;;;12.25;79.29;97532.06;116166;1185;69135;-78
2021/09/02 02:15:56;;;;;;;9.00;5.30;;;;;;;12.25;79.35;97532.88;116163;1179;59561;-77
2021/09/02 02:18:26;;;;;;;8.00;4.90;;;;;;;12.25;79.06;97534.22;116156;1185;59531;-78
2021/09/02 02:20:56;;;;;;;9.70;5.50;;;;;;;12.21;79.17;97532.14;116117;1181;70553;-74
2021/09/02 02:23:25;;;;;;;15.40;5.90;;;;;;;12.20;79.29;97534.38;116163;1184;68054;-79
2021/09/02 02:25:55;;;;;;;10.90;6.80;;;;;;;12.20;79.26;97537.56;116151;1179;69464;-79
2021/09/02 02:28:25;;;;;;;14.70;6.10;;;;;;;12.18;79.26;97540.31;116176;1182;59563;-80
2021/09/02 02:30:55;;;;;;;10.50;6.20;;;;;;;12.17;79.08;97540.42;116191;1184;59610;-78
2021/09/02 02:33:25;;;;;;;10.90;7.00;;;;;;;12.16;79.46;97543.65;116089;1185;70588;-78
2021/09/02 02:35:54;;;;;;;9.40;6.50;;;;;;;12.15;79.46;97538.36;116206;1185;68953;-77
2021/09/02 02:38:25;;;;;;;10.60;6.30;;;;;;;12.14;79.25;97538.95;116149;1179;68446;-79
2021/09/02 02:40:55;;;;;;;11.20;6.60;;;;;;;12.13;79.31;97541.13;116172;1180;59556;-79
2021/09/02 02:43:25;;;;;;;10.80;6.30;;;;;;;12.12;79.73;97539.67;116202;1185;59580;-74
2021/09/02 02:45:58;;;;;;;12.80;6.60;;;;;;;12.13;79.34;97538.91;116163;1179;71368;-79
2021/09/02 02:48:28;;;;;;;9.50;5.30;;;;;;;12.11;79.43;97538.83;116234;1185;68896;-81
2021/09/02 02:50:58;;;;;;;12.40;6.30;;;;;;;12.10;79.58;97538.92;116144;1185;69088;-80
2021/09/02 02:53:29;;;;;;;10.30;5.90;;;;;;;12.11;79.58;97543.09;116200;1181;59549;-74
2021/09/02 02:55:58;;;;;;;11.70;6.10;;;;;;;12.10;79.31;97540.21;116182;1182;59546;-75
2021/09/02 02:58:29;;;;;;;10.60;6.60;;;;;;;12.09;79.21;97541.57;116193;1184;71393;-74
2021/09/02 03:00:59;;;;;;;11.50;7.00;;;;;;;12.08;79.23;97544.15;116179;1185;68062;-77
2021/09/02 03:03:31;;;;;;;11.20;6.80;;;;;;;12.08;79.77;97547.08;116196;1184;69423;-76
2021/09/02 03:06:01;;;;;;;10.00;7.10;;;;;;;12.07;79.72;97545.40;116171;1184;59552;-77
2021/09/02 03:08:31;;;;;;;8.90;6.10;;;;;;;12.05;79.51;97549.98;116073;1185;59558;-76
2021/09/02 03:11:01;;;;;;;12.00;6.70;;;;;;;12.03;79.60;97552.80;116191;1180;71542;-76
2021/09/02 03:13:30;;;;;;;8.40;6.30;;;;;;;12.03;79.63;97555.02;116199;1179;69156;-77
2021/09/02 03:16:00;;;;;;;9.70;6.60;;;;;;;12.04;79.80;97557.92;116166;1185;68469;-79
2021/09/02 03:18:30;;;;;;;10.50;7.00;;;;;;;12.05;79.60;97555.20;116170;1181;59563;-78
2021/09/02 03:21:00;;;;;;;10.30;6.90;;;;;;;12.04;79.68;97559.20;116183;1185;59551;-78
2021/09/02 03:23:30;;;;;;;9.40;6.80;;;;;;;12.05;79.80;97562.66;116108;1185;71179;-76
2021/09/02 03:26:00;;;;;;;12.10;7.00;;;;;;;12.03;80.07;97561.86;116104;1185;69182;-71
2021/09/02 03:28:30;;;;;;;10.10;6.90;;;;;;;12.03;79.64;97562.80;116136;1184;68412;-76
2021/09/02 03:31:00;;;;;;;11.70;6.90;;;;;;;12.03;79.64;97565.58;116240;1183;59541;-79
2021/09/02 03:33:29;;;;;;;10.20;6.40;;;;;;;12.04;79.90;97567.55;116262;1185;59574;-79
2021/09/02 03:35:59;;;;;;;11.80;7.30;;;;;;;12.03;79.94;97568.36;116298;1179;70543;-80
2021/09/02 03:38:28;;;;;;;14.10;7.00;;;;;;;12.02;79.85;97565.29;116200;1185;69375;-79
2021/09/02 03:40:58;;;;;;;10.80;6.90;;;;;;;11.99;80.26;97563.15;116247;1184;68254;-74
2021/09/02 03:43:28;;;;;;;11.30;7.30;;;;;;;11.93;80.20;97567.66;116170;1182;59545;-78
2021/09/02 03:45:57;;;;;;;11.70;7.20;;;;;;;11.84;80.25;97569.38;116232;1184;59535;-79
2021/09/02 03:48:27;;;;;;;10.50;7.10;;;;;;;11.76;80.20;97570.91;116105;1184;71353;-80
2021/09/02 03:50:57;;;;;;;10.80;6.70;;;;;;;11.69;80.21;97572.09;116199;1179;69385;-71
2021/09/02 03:53:27;;;;;;;;;;;;;;;11.63;80.43;97576.19;116287;1179;68233;-78
2021/09/02 03:55:56;;;;;;;15.10;7.90;;;;;;;11.56;80.55;97578.28;116228;1182;59549;-80
2021/09/02 03:58:26;;;;;;;10.60;7.20;;;;;;;11.53;80.93;97578.33;116197;1181;59537;-79
2021/09/02 04:00:55;;;;;;;13.70;8.80;;;;;;;11.49;81.10;97578.12;116235;1183;71337;-78
2021/09/02 04:03:25;;;;;;;11.80;7.90;;;;;;;11.46;81.21;97572.73;116159;1183;68948;-78
2021/09/02 04:05:54;;;;;;;11.90;8.60;;;;;;;11.43;81.32;97572.34;116182;1182;69185;-72
2021/09/02 04:08:24;;;;;;;10.90;8.20;;;;;;;11.41;81.20;97580.35;116226;1179;59518;-79
2021/09/02 04:10:54;;;;;;;10.90;7.90;;;;;;;11.36;81.48;97585.33;116233;1183;59546;-78
2021/09/02 04:13:23;;;;;;;13.60;8.70;;;;;;;11.34;81.47;97589.18;116254;1183;70822;-78
2021/09/02 04:15:53;;;;;;;13.80;7.50;;;;;;;11.34;81.74;97591.89;116219;1183;68036;-80
2021/09/02 04:18:22;;;;;;;10.90;7.40;;;;;;;11.43;81.41;97593.90;116317;1182;69110;-77
2021/09/02 04:20:51;;;;;;;14.50;8.30;;;;;;;11.41;81.19;97592.84;116213;1182;59555;-76
2021/09/02 04:23:21;;;;;;;12.90;8.50;;;;;;;11.39;81.28;97595.92;116230;1184;59553;-79
2021/09/02 04:25:50;;;;;;;14.30;8.00;;;;;;;11.36;81.54;97598.88;116205;1179;70832;-77
2021/09/02 04:28:20;;;;;;;13.20;8.10;;;;;;;11.37;81.63;97607.02;116250;1179;69176;-79
2021/09/02 04:30:49;;;;;;;12.80;8.20;;;;;;;11.43;81.63;97607.05;116258;1183;68264;-73
2021/09/02 04:33:18;;;;;;;13.60;7.90;;;;;;;11.50;81.35;97606.55;116045;1181;59498;-76
2021/09/02 04:35:48;;;;;;;12.50;7.90;;;;;;;11.55;81.08;97610.25;116227;1185;59501;-79
2021/09/02 04:38:19;;;;;;;12.80;8.20;;;;;;;11.55;81.07;97604.86;116139;1180;70670;-73
2021/09/02 04:40:50;;;;;;;12.50;7.10;;;;;;;11.64;80.64;97604.35;116327;1183;69013;-78
2021/09/02 04:43:19;;;;;;;12.00;7.10;;;;;;;11.82;80.08;97610.41;116225;1183;69276;-76
2021/09/02 04:45:49;;;;;;;12.20;7.40;;;;;;;11.98;79.59;97613.86;116142;1182;59543;-75
2021/09/02 04:48:21;;;;;;;11.90;7.40;;;;;;;12.06;79.56;97614.02;116297;1179;60069;-75
2021/09/02 04:50:51;;;;;;;12.20;7.70;;;;;;;12.05;79.15;97618.26;116135;1182;70715;-73
2021/09/02 04:53:20;;;;;;;10.80;6.80;;;;;;;12.04;79.02;97620.56;116308;1179;69007;-73
2021/09/02 04:55:50;;;;;;;12.10;7.30;;;;;;;12.10;78.95;97629.02;116248;1183;69247;-78
2021/09/02 04:58:19;;;;;;;10.70;6.80;;;;;;;12.12;78.79;97634.66;116253;1182;59530;-74
2021/09/02 05:00:48;;;;;;;10.90;7.30;;;;;;;12.13;78.83;97637.48;116240;1183;59565;-74
2021/09/02 05:03:17;;;;;;;10.80;6.70;;;;;;;12.24;78.35;97638.63;116167;1182;70431;-72
2021/09/02 05:05:47;;;;;;;10.80;6.90;;;;;;;12.69;77.96;97640.70;116231;1183;68455;-77
2021/09/02 05:08:16;;;;;;;10.00;6.60;;;;;;;13.15;77.79;97642.20;116213;1178;68263;-80
2021/09/02 05:10:45;;;;;;;9.40;6.00;;;;;;;13.48;75.19;97644.89;116156;1179;59554;-78
2021/09/02 05:13:14;;;;;;;11.00;5.90;;;;;;;13.62;73.08;97643.52;116253;1182;58838;-75
2021/09/02 05:15:43;;;;;;;9.90;6.30;;;;;;;13.68;72.76;97640.83;116239;1182;71160;-73
2021/09/02 05:18:13;;;;;;;9.80;6.30;;;;;;;13.87;72.51;97648.02;116212;1183;68253;-76
2021/09/02 05:20:42;;;;;;;9.70;5.20;;;;;;;14.04;71.78;97645.85;116213;1179;68472;-72
2021/09/02 05:23:11;;;;;;;10.20;6.00;;;;;;;14.09;71.63;97651.69;116254;1182;59558;-77
2021/09/02 05:25:40;;;;;;;8.00;5.40;;;;;;;14.36;70.99;97645.60;116194;1182;59501;-75
2021/09/02 05:28:09;;;;;;;11.90;5.90;;;;;;;14.33;70.35;97646.75;116050;1185;71366;-73
2021/09/02 05:30:38;;;;;;;10.10;5.80;;;;;;;14.43;70.61;97649.04;116128;1184;69123;-73
2021/09/02 05:33:08;;;;;;;11.30;5.40;;;;;;;14.43;70.45;97656.06;116156;1184;68301;-75
2021/09/02 05:35:37;;;;;;;12.30;5.80;;;;;;;14.43;70.53;97663.38;116187;1179;59553;-77
2021/09/02 05:38:10;;;;;;;10.90;5.20;;;;;;;14.43;70.20;97666.80;116102;1180;59537;-77
2021/09/02 05:40:40;;;;;;;8.60;5.00;;;;;;;14.43;70.08;97668.55;116176;1185;70387;-75
2021/09/02 05:43:09;;;;;;;8.80;5.20;;;;;;;14.42;70.21;97669.38;116178;1180;69251;-78
2021/09/02 05:45:38;;;;;;;10.40;5.40;;;;;;;14.59;69.34;97673.59;116093;1180;69208;-76
2021/09/02 05:48:08;;;;;;;9.90;5.40;;;;;;;14.82;69.46;97670.77;116160;1182;59564;-79
2021/09/02 05:50:37;;;;;;;9.80;5.20;;;;;;;15.12;67.97;97674.50;116203;1179;59552;-79
2021/09/02 05:53:06;;;;;;;10.30;5.60;;;;;;;15.43;66.80;97676.80;116173;1179;70405;-74
2021/09/02 05:55:37;;;;;;;9.20;5.10;;;;;;;15.76;65.64;97685.47;116114;1179;69252;-77
2021/09/02 05:58:06;;;;;;;10.10;4.60;;;;;;;16.01;65.15;97679.19;116157;1185;69151;-77
2021/09/02 06:00:35;;;;;;;10.30;5.10;;;;;;;16.17;65.31;97683.88;116078;1185;59493;-74
2021/09/02 06:03:04;;;;;;;7.40;4.10;;;;;;;16.25;64.00;97684.77;115894;1182;59491;-77
2021/09/02 06:05:33;;;;;;;8.40;4.80;;;;;;;15.93;63.92;97685.23;116061;1185;71445;-77
2021/09/02 06:08:03;;;;;;;10.10;4.70;;;;;;;15.84;64.15;97683.98;116118;1183;68597;-76
2021/09/02 06:10:33;;;;;;;10.20;5.20;;;;;;;15.73;64.78;97689.25;116103;1185;69264;-75
2021/09/02 06:13:02;;;;;;;;;;;;;;;15.68;64.98;97692.02;116214;1185;59613;-75
2021/09/02 06:15:31;;;;;;;7.00;4.70;;;;;;;15.43;65.28;97696.09;116128;1179;59505;-77
2021/09/02 06:18:01;;;;;;;9.60;5.10;;;;;;;15.24;66.07;97698.37;116143;1180;71465;-72
2021/09/02 06:20:31;;;;;;;8.40;4.60;;;;;;;15.09;66.78;97699.35;116165;1185;67354;-74
2021/09/02 06:23:00;;;;;;;13.40;5.30;;;;;;;14.88;66.81;97699.36;116156;1184;69016;-75
2021/09/02 06:25:29;;;;;;;8.90;5.30;;;;;;;14.68;67.52;97697.93;116023;1179;59506;-76
2021/09/02 06:27:58;;;;;;;10.00;4.50;;;;;;;14.54;68.41;97699.89;116217;1183;59549;-74
2021/09/02 06:30:28;;;;;;;7.40;4.70;;;;;;;14.42;69.40;97707.11;116208;1182;71313;-74
2021/09/02 06:32:56;;;;;;;11.10;5.20;;;;;;;14.34;69.36;97711.33;116212;1179;69476;-75
2021/09/02 06:35:26;;;;;;;9.20;4.80;;;;;;;14.30;69.47;97716.98;116157;1179;69653;-77
2021/09/02 06:37:55;;;;;;;9.90;5.00;;;;;;;14.17;69.95;97720.59;116170;1183;59531;-75
2021/09/02 06:40:25;;;;;;;7.10;4.90;;;;;;;14.14;70.10;97723.00;116213;1184;59553;-76
2021/09/02 06:42:54;;;;;;;9.40;4.90;;;;;;;14.12;70.32;97719.41;116239;1183;71192;-73
2021/09/02 06:45:23;;;;;;;9.20;5.20;;;;;;;14.09;71.14;97721.59;116216;1180;69291;-73
2021/09/02 06:47:52;;;;;;;9.00;5.40;;;;;;;14.20;70.77;97724.68;116185;1184;67674;-74
2021/09/02 06:50:21;;;;;;;9.70;5.20;;;;;;;14.18;70.23;97722.05;116193;1178;60054;-74
2021/09/02 06:52:50;;;;;;;9.10;5.20;;;;;;;14.21;69.77;97722.27;116188;1183;59458;-76
2021/09/02 06:55:19;;;;;;;9.80;5.10;;;;;;;14.19;70.11;97721.86;116066;1185;70716;-76
2021/09/02 06:57:49;;;;;;;8.10;5.10;;;;;;;14.19;70.21;97727.67;116233;1183;68338;-73
2021/09/02 07:00:18;;;;;;;8.90;4.50;;;;;;;14.26;70.56;97728.11;116194;1183;68305;-75
2021/09/02 07:02:47;;;;;;;7.20;4.20;;;;;;;14.38;70.52;97724.45;116252;1183;59536;-75
2021/09/02 07:05:17;;;;;;;6.70;4.30;;;;;;;14.49;70.11;97726.67;116208;1183;59559;-74
2021/09/02 07:07:46;;;;;;;8.20;4.90;;;;;;;14.62;69.49;97724.40;116231;1183;70573;-75
2021/09/02 07:10:36;;;;;;;13.90;4.70;;;;;;;14.70;68.56;97726.46;116177;1179;69056;-77
2021/09/02 07:13:05;;;;;;;8.60;4.80;;;;;;;14.75;68.65;97724.34;116101;1184;68251;-76
2021/09/02 07:15:34;;;;;;;7.00;4.60;;;;;;;14.71;68.18;97727.47;116070;1179;59505;-75
2021/09/02 07:18:04;;;;;;;7.30;4.40;;;;;;;14.74;68.25;97720.56;116264;1183;59546;-75
2021/09/02 07:20:33;;;;;;;8.70;4.60;;;;;;;14.90;68.31;97727.92;116263;1179;71322;-77
2021/09/02 07:23:02;;;;;;;9.30;4.70;;;;;;;15.21;67.98;97725.36;116253;1183;69077;-79
2021/09/02 07:25:32;;;;;;;12.10;4.70;;;;;;;15.56;67.54;97727.66;116184;1184;68901;-77
2021/09/02 07:28:01;;;;;;;6.80;4.50;;;;;;;15.98;67.67;97732.71;116187;1184;59606;-79
2021/09/02 07:30:30;;;;;;;9.80;4.00;;;;;;;16.38;65.16;97732.93;116206;1179;59553;-75
2021/09/02 07:32:59;;;;;;;13.40;4.80;;;;;;;16.25;63.81;97730.96;116280;1179;71137;-77
2021/09/02 07:35:28;;;;;;;8.10;4.40;;;;;;;16.59;64.10;97736.08;116187;1183;68324;-81
2021/09/02 07:37:57;;;;;;;8.20;4.80;;;;;;;16.82;63.02;97737.14;116050;1179;69384;-76
2021/09/02 07:40:26;;;;;;;7.80;4.00;;;;;;;17.45;62.18;97742.57;116212;1180;59546;-78
2021/09/02 07:42:55;;;;;;;6.30;3.50;;;;;;;18.36;60.70;97743.65;116241;1183;59516;-80
2021/09/02 07:45:24;;;;;;;7.30;4.30;;;;;;;19.10;57.61;97744.50;116208;1184;70817;-77
2021/09/02 07:47:53;;;;;;;7.20;4.20;;;;;;;19.30;56.22;97749.30;116249;1183;69218;-76
2021/09/02 07:50:22;;;;;;;6.30;3.90;;;;;;;19.10;55.09;97745.27;115998;1184;69142;-73
2021/09/02 07:52:51;;;;;;;9.30;3.50;;;;;;;18.36;56.19;97750.27;116206;1182;59556;-75
2021/09/02 07:55:20;;;;;;;5.60;3.60;;;;;;;17.69;58.25;97756.34;116194;1183;59547;-76
2021/09/02 07:57:50;;;;;;;9.70;4.30;;;;;;;17.11;58.72;97756.06;116214;1183;70691;-75
2021/09/02 08:00:19;;;;;;;10.00;3.80;;;;;;;16.83;59.33;97747.44;116203;1179;69193;-78
2021/09/02 08:02:48;;;;;;;8.40;3.70;;;;;;;16.88;60.45;97753.44;116199;1179;68436;-78
2021/09/02 08:05:17;;;;;;;8.30;4.40;;;;;;;16.97;59.91;97750.27;116198;1184;59555;-74
2021/09/02 08:07:53;;;;;;;11.10;4.10;;;;;;;17.20;60.04;97747.52;116141;1182;59467;-76
2021/09/02 08:10:25;;;;;;;7.70;3.80;;;;;;;17.87;59.49;97744.55;116198;1183;71525;-74
2021/09/02 08:12:55;;;;;;;9.40;4.60;;;;;;;18.39;57.84;97745.39;116137;1179;68420;-75
2021/09/02 08:15:25;;;;;;;8.00;3.90;;;;;;;18.57;56.26;97739.15;116258;1183;68344;-78
2021/09/02 08:17:58;;;;;;;9.80;4.30;;;;;;;18.59;55.95;97737.70;116267;1183;59555;-75
2021/09/02 08:20:28;;;;;;;9.60;4.30;;;;;;;18.50;56.53;97740.20;116231;1179;59557;-75
2021/09/02 08:22:58;;;;;;;11.80;4.30;;;;;;;18.52;56.51;97744.43;116245;1181;71397;-78
2021/09/02 08:25:28;;;;;;;8.70;4.30;;;;;;;19.23;54.29;97744.37;116258;1181;69200;-74
2021/09/02 08:27:57;;;;;;;8.90;3.90;;;;;;;19.84;52.31;97743.05;116243;1179;68523;-78
2021/09/02 08:30:28;;;;;;;8.60;3.70;;;;;;;20.57;50.63;97746.38;116147;1180;59556;-79
2021/09/02 08:32:58;;;;;;;5.30;3.60;;;;;;;21.24;48.27;97747.21;116151;1179;59508;-76
2021/09/02 08:35:31;;;;;;;5.40;3.40;;;;;;;20.99;47.20;97742.60;116152;1182;71388;-76
2021/09/02 08:38:07;;;;;;;7.60;3.70;;;;;;;21.36;47.22;97742.14;116215;1180;68192;-76
2021/09/02 08:40:40;;;;;;;9.30;3.70;;;;;;;21.38;46.50;97738.52;116245;1183;68476;-79
2021/09/02 08:43:10;;;;;;;8.30;4.00;;;;;;;21.61;47.54;97745.16;116224;1183;59617;-79
2021/09/02 08:45:59;;;;;;;7.20;3.50;;;;;;;21.27;45.80;97744.29;116214;1183;59565;-79
2021/09/02 08:48:29;;;;;;;5.90;3.90;;;;;;;21.01;47.22;97749.31;116128;1179;71191;-74
2021/09/02 08:50:59;;;;;;;7.10;3.60;;;;;;;20.74;48.10;97753.05;116245;1183;68431;-79
2021/09/02 08:53:28;;;;;;;7.60;3.90;;;;;;;20.37;48.29;97753.86;116432;1180;69019;-76
2021/09/02 08:55:57;;;;;;;6.30;3.40;;;;;;;20.04;48.69;97753.58;116203;1182;59539;-77
2021/09/02 08:58:26;;;;;;;5.10;3.30;;;;;;;20.60;48.96;97754.36;116190;1182;59543;-76
2021/09/02 09:00:55;;;;;;;8.10;3.70;;;;;;;21.40;47.21;97751.41;116178;1183;71314;-77
2021/09/02 09:03:25;;;;;;;7.50;3.70;;;;;;;22.17;46.47;97742.83;116208;1183;68508;-75
2021/09/02 09:05:58;;;;;;;7.70;3.60;;;;;;;22.74;43.18;97743.50;116222;1180;68470;-76
2021/09/02 09:08:36;;;;;;;4.90;3.20;;;;;;;23.21;41.74;97737.97;116246;1178;59533;-79
2021/09/02 09:11:20;;;;;;;4.80;3.30;;;;;;;23.05;41.57;97741.71;116241;1182;59519;-79
2021/09/02 09:14:11;;;;;;;6.80;3.50;;;;;;;22.58;42.19;97743.10;116267;1183;71409;-76
2021/09/02 09:16:51;;;;;;;6.00;3.20;;;;;;;22.02;43.79;97746.24;116046;1184;69302;-74
2021/09/02 09:19:39;;;;;;;6.20;3.40;;;;;;;21.37;44.97;97743.70;116241;1183;68455;-74
2021/09/02 09:22:13;;;;;;;7.30;3.40;;;;;;;20.92;45.19;97747.27;116177;1179;59540;-74
2021/09/02 09:24:46;;;;;;;5.00;3.30;;;;;;;20.44;45.78;97747.24;116295;1179;59510;-79
2021/09/02 09:27:18;;;;;;;6.60;3.20;;;;;;;20.09;46.30;97745.49;116215;1183;70749;-76
2021/09/02 09:30:05;;;;;;;5.10;3.10;;;;;;;19.99;47.37;97751.39;116294;1182;69846;-79
2021/09/02 09:32:52;;;;;;;5.30;3.40;;;;;;;19.83;47.54;97744.88;116108;1181;68463;-80
2021/09/02 09:35:29;;;;;;;4.50;2.80;;;;;;;19.81;46.86;97746.70;116213;1183;59535;-75
2021/09/02 09:38:12;;;;;;;4.40;2.90;;;;;;;19.65;46.31;97746.07;116203;1180;59561;-77
2021/09/02 09:40:49;;;;;;;5.70;3.20;;;;;;;19.53;47.40;97748.52;116191;1183;71404;-78
2021/09/02 09:43:23;;;;;;;6.40;2.80;;;;;;;19.45;47.19;97745.81;116198;1183;68386;-75
2021/09/02 09:45:54;;;;;;;4.30;2.80;;;;;;;19.29;47.41;97745.52;116221;1179;69855;-78
2021/09/02 09:48:33;;;;;;;6.40;3.30;;;;;;;19.14;48.27;97754.30;116105;1180;59629;-79
2021/09/02 09:51:10;;;;;;;6.30;3.30;;;;;;;18.97;48.94;97752.80;116168;1183;59517;-78
2021/09/02 09:53:42;;;;;;;8.50;3.20;;;;;;;18.80;49.58;97755.52;116218;1183;71380;-78
2021/09/02 09:56:14;;;;;;;6.40;3.00;;;;;;;18.60;48.72;97754.54;116222;1183;69275;-78
2021/09/02 09:58:45;;;;;;;5.80;3.10;;;;;;;18.61;49.08;97755.48;116097;1184;69381;-78
2021/09/02 10:01:15;;;;;;;4.60;2.90;;;;;;;18.79;49.36;97753.17;116234;1179;59549;-76
2021/09/02 10:03:51;;;;;;;6.50;3.10;;;;;;;19.26;49.40;97751.39;116212;1182;59547;-77
2021/09/02 10:06:22;;;;;;;6.00;3.10;;;;;;;19.91;48.00;97743.58;116197;1179;71333;-77
2021/09/02 10:08:51;;;;;;;4.90;2.80;;;;;;;20.45;47.41;97740.59;116224;1183;69171;-78
2021/09/02 10:11:22;;;;;;;4.70;2.80;;;;;;;20.77;45.91;97741.16;116233;1180;68628;-79
2021/09/02 10:13:51;;;;;;;6.40;3.10;;;;;;;21.04;45.64;97738.74;116233;1183;59500;-79
2021/09/02 10:16:21;;;;;;;6.20;2.90;;;;;;;21.08;43.31;97739.59;116290;1180;59554;-77
2021/09/02 10:18:51;;;;;;;5.80;2.50;;;;;;;21.15;42.41;97738.28;116275;1183;71985;-77
2021/09/02 10:21:21;;;;;;;4.90;2.40;;;;;;;21.06;41.88;97737.73;116203;1183;69311;-76
2021/09/02 10:23:50;;;;;;;;;;;;;;;20.53;41.79;97747.06;116196;1180;68870;-77
2021/09/02 10:26:39;;;;;;;4.10;2.70;;;;;;;20.24;42.70;97748.89;116181;1183;59491;-79
2021/09/02 10:29:35;;;;;;;7.20;3.00;;;;;;;19.98;43.37;97747.30;116129;1184;59503;-78
2021/09/02 10:32:27;;;;;;;5.80;2.90;;;;;;;20.04;44.35;97742.53;116236;1179;70392;-79
2021/09/02 10:35:05;;;;;;;7.70;2.80;;;;;;;20.02;44.96;97740.77;116172;1179;69017;-79
2021/09/02 10:37:34;;;;;;;4.00;2.70;;;;;;;19.97;45.35;97737.56;116221;1183;68474;-79
2021/09/02 10:40:25;;;;;;;5.70;2.80;;;;;;;19.87;45.84;97732.80;116198;1182;59507;-79
2021/09/02 10:42:57;;;;;;;3.90;2.50;;;;;;;19.64;46.25;97736.56;116278;1182;59555;-80
2021/09/02 10:45:29;;;;;;;8.10;2.70;;;;;;;19.47;47.35;97745.23;116297;1179;71427;-78
2021/09/02 10:48:00;;;;;;;4.90;2.90;;;;;;;19.23;48.08;97745.18;116231;1180;69254;-73
2021/09/02 10:50:35;;;;;;;5.00;2.80;;;;;;;19.05;48.52;97754.86;116201;1183;69375;-79
2021/09/02 10:53:15;;;;;;;4.80;3.00;;;;;;;19.22;49.06;97754.42;115990;1185;59556;-74
2021/09/02 10:55:52;;;;;;;5.10;2.90;;;;;;;19.87;47.50;97752.54;116203;1179;59530;-80
2021/09/02 10:58:50;;;;;;;7.50;3.10;;;;;;;19.90;47.03;97749.97;116210;1183;71442;-74
2021/09/02 11:01:29;;;;;;;4.50;2.80;;;;;;;19.35;48.18;97749.36;116201;1179;69158;-79
2021/09/02 11:04:03;;;;;;;;;;;;;;;18.82;48.22;97753.56;116194;1178;67809;-76
2021/09/02 11:06:49;;;;;;;6.70;2.80;;;;;;;18.65;48.82;97761.21;116165;1181;59533;-80
2021/09/02 11:09:29;;;;;;;7.20;2.60;;;;;;;18.65;49.94;97768.77;116195;1184;59537;-80
2021/09/02 11:12:00;;;;;;;6.30;3.10;;;;;;;18.78;50.21;97766.20;116184;1180;71297;-80
2021/09/02 11:14:29;;;;;;;4.20;2.60;;;;;;;18.99;50.53;97768.96;116188;1183;69234;-80
2021/09/02 11:17:05;;;;;;;4.10;2.80;;;;;;;19.11;49.54;97764.58;116206;1183;69289;-78
2021/09/02 11:19:36;;;;;;;3.80;2.60;;;;;;;19.36;47.99;97761.14;116251;1180;59523;-77
2021/09/02 11:22:12;;;;;;;5.30;2.50;;;;;;;19.74;47.14;97763.18;116221;1181;59559;-77
2021/09/02 11:24:44;;;;;;;4.50;2.70;;;;;;;19.83;46.62;97760.05;116222;1179;70562;-76
2021/09/02 11:27:34;;;;;;;5.70;2.60;;;;;;;20.00;45.63;97759.92;116238;1178;68445;-76
2021/09/02 11:30:22;;;;;;;4.80;2.40;;;;;;;19.81;44.49;97761.52;116170;1183;68419;-75
2021/09/02 11:32:59;;;;;;;3.40;2.10;;;;;;;19.49;46.03;97766.95;116248;1178;59554;-74
2021/09/02 11:35:28;;;;;;;5.00;2.70;;;;;;;19.19;46.45;97764.48;116223;1183;59546;-76
2021/09/02 11:37:57;;;;;;;3.80;2.20;;;;;;;19.21;47.39;97772.94;116221;1179;70658;-75
2021/09/02 11:40:35;;;;;;;5.50;2.60;;;;;;;19.15;48.44;97775.30;116170;1182;68667;-74
2021/09/02 11:43:14;;;;;;;8.40;2.70;;;;;;;19.11;48.15;97777.48;116192;1183;69323;-76